Dickinson's Hourly Summary for Wednesday, May 9, 2018
Hour Temp
(f)
RH
(%)
Solar Rad.
(MJ/m2)
Rainfall
(in)
Wind
(mph)
5/9/2018 12:00 AM 69 83 0 0 0.02
5/9/2018 1:00 AM 67 90 0 0 0
5/9/2018 2:00 AM 67 93 0 0 0
5/9/2018 3:00 AM 66 94 0 0 0
5/9/2018 4:00 AM 66 95 0 0 0.03
5/9/2018 5:00 AM 66 96 0 0 0
5/9/2018 6:00 AM 65 97 0 0 0
5/9/2018 7:00 AM 65 98 0.02 0 0
5/9/2018 8:00 AM 67 95 0.33 0 0
5/9/2018 9:00 AM 74 76 0.94 0 0.43
5/9/2018 10:00 AM 77 62 0.97 0 4.24
5/9/2018 11:00 AM 80 51 2.59 0 4.86
5/9/2018 12:00 PM 82 38 3.09 0 5.91
5/9/2018 1:00 PM 84 29 3.39 0 7.57
5/9/2018 2:00 PM 85 32 3.43 0 7.03
5/9/2018 3:00 PM 85 29 3.25 0 6.62
5/9/2018 4:00 PM 84 31 2.84 0 8.21
5/9/2018 5:00 PM 83 31 2.32 0 7.6
5/9/2018 6:00 PM 82 42 1.63 0 7.47
5/9/2018 7:00 PM 80 44 0.89 0 6.67
5/9/2018 8:00 PM 78 54 0.21 0 4.04
5/9/2018 9:00 PM 74 67 0 0 2.36
5/9/2018 10:00 PM 72 77 0 0 0.13
5/9/2018 11:00 PM 70 86 0 0 0
Data Summary 74 66 25.90 0.00 3.05